Nearby METAR Reports

 

KSJC - San Jose, California, USA
Distance from station: NE 9mi, 14km
Updated: Sun, 18-Nov-2018 5:20am PST
Mist, Clear
Mist, Clear
 Wind from calm
Wind: Calm
Temperature: 43°F , 6°C
Dew Point: 37°F , 3°C
Humidity: 81%
Barometer: 30.09 inHg , 1019 hPa
Summary: Mist
Clouds: Clear
Visibility: 2 1/2 miles , 4 km
2018/11/18 13:20 KSJC 181320Z AUTO 00000KT 2 1/2SM BR CLR 06/03 A3009 RMK AO2 T00560033 $
KNUQ - Moffett Nas/Mtn, California, USA
Distance from station: N 9mi, 14km
Updated: Sun, 18-Nov-2018 4:56am PST
Smoke, Clear
Smoke, Clear
 Wind from calm
Wind: Calm
Temperature: 43°F , 6°C
Dew Point: 39°F , 4°C
Humidity: 87%
Barometer: 30.09 inHg , 1019 hPa
Summary: Smoke
Clouds: Clear
Visibility: 3 miles , 5 km
2018/11/18 12:56 KNUQ 181256Z 00000KT 3SM FU CLR 06/04 A3009 RMK AO2 SLP192 T00560044
 
KPAO - Palo Alto, California, USA
Distance from station: NNW 14mi, 23km
Updated: Sat, 17-Nov-2018 8:47pm PST
NOT Current
Smoke, Clear
Smoke, Clear
 Wind from calm
Wind: Calm
Temperature: 48°F , 9°C
Dew Point: 46°F , 8°C
Humidity: 94%
Barometer: 30.05 inHg , 1017.6 hPa
Summary: Smoke
Clouds: Clear
Visibility: 3 miles , 5 km
2018/11/18 04:47 KPAO 180447Z 00000KT 3SM FU SKC 09/08 A3005
KRHV - San Jose/Reid, California, USA
Distance from station: ENE 12mi, 19km
Updated: Sat, 17-Nov-2018 9:47pm PST
NOT Current
Smoke, Clear
Smoke, Clear
 Wind from calm
Wind: Calm
Temperature: 48°F , 9°C
Dew Point: 41°F , 5°C
Humidity: 76%
Barometer: 30.05 inHg , 1017.6 hPa
Summary: Smoke
Clouds: Clear
Visibility: 4 miles , 6 km
2018/11/18 05:47 KRHV 180547Z 00000KT 4SM FU SKC 09/05 A3005 RMK LAST
 
KOAK - Oakland, California, USA
Distance from station: NNW 31mi, 50km
Updated: Sun, 18-Nov-2018 4:53am PST
Mist, Overcast
Mist, Overcast
 Wind from calm
Wind: Calm
Temperature: 46°F , 8°C
Dew Point: 43°F , 6°C
Humidity: 87%
Barometer: 30.09 inHg , 1019 hPa
Summary: Mist
Clouds: Overcast
Visibility: 3 miles , 5 km
Cloud details: Overcast 800 ft
2018/11/18 12:53 KOAK 181253Z 00000KT 3SM BR OVC008 08/06 A3009 RMK AO2 SLP189 T00780061
KSQL - San Carlos Airpo, California, USA
Distance from station: NW 21mi, 34km
Updated: Sun, 18-Nov-2018 5:15am PST
Mist, Overcast
Mist, Overcast
 Wind from calm
Wind: Calm
Temperature: 48°F , 9°C
Dew Point: 46°F , 8°C
Humidity: 94%
Barometer: 30.09 inHg , 1019 hPa
Summary: Mist
Clouds: Overcast
Visibility: 3 miles , 5 km
Cloud details: Overcast 900 ft
2018/11/18 13:15 KSQL 181315Z AUTO 00000KT 3SM BR OVC009 09/08 A3009 RMK AO2
 
KSFO - San Francisco, California, USA
Distance from station: NW 30mi, 49km
Updated: Sun, 18-Nov-2018 4:56am PST
Mist, Smoke, Overcast
Mist, Smoke, Overcast
 Wind from SW
Wind: SW 3 mph , 6 km/h
Temperature: 46°F , 8°C
Dew Point: 43°F , 6°C
Humidity: 87%
Barometer: 30.08 inHg , 1018.6 hPa
Summary: Mist, Smoke
Clouds: Overcast
Visibility: 3 miles , 5 km
Cloud details: Few Clouds 700 ft
Overcast 1000 ft
2018/11/18 12:56 KSFO 181256Z 22003KT 3SM BR FU FEW007 OVC010 08/06 A3008 RMK AO2 SLP186 FU FEW007 FU OVC010 T00830061 $
KE16 - San Martin, California, USA
Distance from station: ESE 27mi, 43km
Updated: Sun, 18-Nov-2018 5:10am PST
Mist, Overcast
Mist, Overcast
 Wind from calm
Wind: Calm
Temperature: 36°F , 2°C
Dew Point: 34°F , 1°C
Humidity: 93%
Barometer: 30.11 inHg , 1019.6 hPa
Summary: Mist
Clouds: Overcast
Visibility: 1 mile , 2 km
Cloud details: Overcast 200 ft
2018/11/18 13:10 KE16 181310Z AUTO 00000KT 1SM BR OVC002 02/01 A3011 RMK AO2
 
KWVI - Watsonville, California, USA
Distance from station: SSE 27mi, 44km
Updated: Sun, 18-Nov-2018 4:53am PST
Mist, Overcast
Mist, Overcast
 Wind from E
Wind: E 5 mph , 7 km/h
Temperature: 45°F , 7°C
Wind Chill: 42°F , 6°C
Dew Point: 45°F , 7°C
Humidity: 100%
Barometer: 30.09 inHg , 1019 hPa
Summary: Mist
Clouds: Overcast
Visibility: 2 miles , 3 km
Cloud details: Overcast 400 ft
2018/11/18 12:53 KWVI 181253Z AUTO 09004KT 2SM BR OVC004 07/07 A3009 RMK AO2 SLP189 T00720072
KHAF - Half Moon Bay, California, USA
Distance from station: WNW 31mi, 50km
Updated: Sun, 18-Nov-2018 5:20am PST
Mist, Overcast
Mist, Overcast
 Wind from calm
Wind: Calm
Temperature: 37°F , 3°C
Dew Point: 37°F , 3°C
Humidity: 100%
Barometer: 30.09 inHg , 1019 hPa
Summary: Mist
Clouds: Overcast
Visibility: 1 mile , 2 km
Cloud details: Overcast 1800 ft
2018/11/18 13:20 KHAF 181320Z AUTO 00000KT 1SM BR OVC018 03/03 A3009 RMK AO2
 
KHWD - Hayward, California, USA
Distance from station: N 28mi, 44km
Updated: Sun, 18-Nov-2018 5:18am PST
Mist, Smoke, Mostly cloudy
Mist, Smoke, Mostly cloudy
 Wind from calm
Wind: Calm
Temperature: 45°F , 7°C
Dew Point: 39°F , 4°C
Humidity: 81%
Barometer: 30.09 inHg , 1019 hPa
Summary: Mist, Smoke
Clouds: Mostly cloudy
Visibility: 3 miles , 5 km
Cloud details: Mostly cloudy 800 ft
2018/11/18 13:18 KHWD 181318Z 00000KT 3SM BR FU BKN008 07/04 A3009 RMK AO2 T00670044
KLVK - Livermore, California, USA
Distance from station: NNE 31mi, 51km
Updated: Sun, 18-Nov-2018 4:53am PST
Haze, Smoke, Clear
Haze, Smoke, Clear
 Wind from calm
Wind: Calm
Temperature: 36°F , 2°C
Dew Point: 30°F , -1°C
Humidity: 81%
Barometer: 30.08 inHg , 1018.6 hPa
Summary: Haze, Smoke
Clouds: Clear
Visibility: 1 3/4 miles , 2.8 km
2018/11/18 12:53 KLVK 181253Z AUTO 00000KT 1 3/4SM HZ FU CLR 02/M01 A3008 RMK AO2 SLP186 T00221006